Latest Weather Observations for Cape Wessel

IDD60801

Issued at 1:35 pm CST Saturday 19 April 2014 (issued every 30 minutes, with the page automatically refreshed every 10 minutes)

About weather observations | Map of weather stations | Latest weather observations for NT | Other Formats
Station Details ID: 200786 Name: CAPE WESSEL Lat: -11.00 Lon: 136.76 Height: 18.0 m
Data from the previous 72 hours. | See also: Recent months for locations in Northern Territory
Date/Time
CST
Temp
°C
App
Temp
°C
Dew
Point
Rel
Hum
%
Delta-T
°C
Wind Press
QNH
hPa
Press
MSL
hPa
Rain
since 9 am
mm
Dir
 
Spd
km/h
Gust
km/h
Spd
kts
Gust
kts
19/01:30pm 26.4 - 26.7 - - NE 28 35 15 19 1008.8 - 15.6
19/01:00pm 26.5 - 26.8 - - ENE 35 48 19 26 1009.3 - 15.6
19/12:54pm 26.1 - 26.4 - - ENE 37 48 20 26 1009.3 - 15.4
19/12:35pm 25.8 - 26.1 - - ESE 33 57 18 31 1009.7 - 11.6
19/12:30pm 25.4 - 25.7 - - ESE 30 41 16 22 1009.6 - 10.4
19/12:18pm 25.8 - 26.0 - - ENE 33 46 18 25 1009.7 - 8.0
19/12:00pm 26.3 - 26.5 - - E 39 56 21 30 1010.0 1009.9 5.8
19/11:48am 26.3 26.6 26.3 100 0.0 E 37 56 20 30 1010.2 - 3.0
19/11:41am 26.6 26.9 26.4 99 0.1 E 37 48 20 26 1010.1 - 0.4
19/11:30am 27.1 27.8 26.4 96 0.5 SE 35 44 19 24 1010.3 - 0.0
19/11:24am 27.3 27.1 26.2 94 0.8 ESE 39 44 21 24 1010.4 - 0.0
19/11:00am 28.4 29.5 27.0 92 1.0 E 35 44 19 24 1010.7 - 0.0
19/10:30am 28.0 28.6 26.8 93 0.9 E 37 46 20 25 1011.1 - 0.0
19/10:00am 27.8 28.0 26.2 91 1.1 E 37 46 20 25 1011.3 - 0.0
19/09:30am 27.6 27.8 26.2 92 1.0 E 37 50 20 27 1011.2 - 0.0
19/09:00am 26.5 - 26.7 - - ESE 39 46 21 25 1011.1 1011.0 57.8
19/08:32am 25.4 - 25.6 - - SE 43 61 23 33 1010.9 - 57.8
19/08:30am 25.9 - 26.1 - - SE 41 57 22 31 1011.0 - 57.8
19/08:28am 26.0 - 26.2 - - SE 39 57 21 31 1011.0 - 57.8
19/08:00am 26.9 - 27.1 - - E 41 50 22 27 1010.4 - 57.8
19/07:30am 26.6 - 26.9 - - E 39 50 21 27 1010.1 - 57.8
19/07:00am 26.0 - 26.3 - - ESE 37 44 20 24 1010.2 - 57.8
19/06:30am 24.8 - 25.1 - - ESE 41 54 22 29 1009.8 - 57.4
19/06:00am 25.1 - 25.3 - - ESE 50 69 27 37 1009.3 1009.2 50.6
19/05:52am 25.8 - 26.0 - - SE 41 59 22 32 1009.0 - 48.4
19/05:30am 25.7 - 25.9 - - ESE 39 52 21 28 1009.1 - 48.4
19/05:00am 27.0 - 27.2 - - ESE 35 50 19 27 1009.1 - 48.4
19/04:30am 26.8 - 27.0 - - ESE 32 39 17 21 1009.1 - 48.4
19/04:00am 26.5 - 26.8 - - ESE 35 44 19 24 1009.1 - 48.4
19/03:30am 26.3 - 26.6 - - ESE 28 37 15 20 1009.0 - 48.4
19/03:00am 26.0 - 26.3 - - ESE 32 41 17 22 1009.3 1009.2 48.4
19/02:30am 26.0 - 26.3 - - SE 37 44 20 24 1009.4 - 48.4
19/02:00am 25.5 - 25.8 - - ESE 35 44 19 24 1009.5 - 48.4
19/01:30am 25.4 - 25.7 - - ESE 30 39 16 21 1009.9 - 48.4
19/01:00am 25.5 - 25.8 - - SE 33 39 18 21 1010.4 - 46.8
19/12:30am 25.6 - 25.9 - - SSE 35 44 19 24 1010.8 - 46.4
19/12:09am 26.0 - 26.2 - - SSE 41 50 22 27 1010.9 - 46.4
19/12:00am 26.5 - 26.7 - - S 20 30 11 16 1011.1 1011.0 42.0
 
Date/Time
CST
Temp
°C
App
Temp
°C
Dew
Point
Rel
Hum
%
Delta-T
°C
Wind Press
QNH
hPa
Press
MSL
hPa
Rain
since 9 am
mm
Dir
 
Spd
km/h
Gust
km/h
Spd
kts
Gust
kts
18/11:30pm 27.1 - 27.3 - - SE 17 24 9 13 1011.3 - 42.0
18/11:00pm 26.8 - 27.0 - - SSE 17 20 9 11 1011.7 - 42.0
18/10:30pm 26.8 - 27.0 - - ESE 19 24 10 13 1011.7 - 42.0
18/10:00pm 26.6 - 26.8 - - ESE 19 24 10 13 1011.6 - 42.0
18/09:30pm 26.5 - 26.7 - - ESE 19 24 10 13 1011.7 - 42.0
18/09:00pm 26.6 - 26.8 - - SE 20 24 11 13 1011.7 1011.6 42.0
18/08:30pm 26.6 - 26.8 - - ESE 19 24 10 13 1011.7 - 42.0
18/08:00pm 26.4 - 26.6 - - ESE 19 22 10 12 1011.4 - 42.0
18/07:30pm 26.1 - 26.3 - - E 17 20 9 11 1011.1 - 42.0
18/07:00pm 25.7 - 25.9 - - E 19 22 10 12 1010.6 - 42.0
18/06:30pm 25.3 - 25.6 - - ENE 11 17 6 9 1010.2 - 42.0
18/06:00pm 25.1 - 25.4 - - ENE 9 11 5 6 1009.9 1009.8 42.0
18/05:30pm 25.3 - 25.6 - - E 15 20 8 11 1009.7 - 42.0
18/05:00pm 25.5 - 25.8 - - ESE 24 35 13 19 1009.6 - 42.0
18/04:30pm 25.4 - 25.7 - - E 22 26 12 14 1009.6 - 41.6
18/04:00pm 25.3 - 25.6 - - E 24 30 13 16 1009.7 - 40.8
18/03:30pm 24.5 - 24.8 - - E 22 30 12 16 1009.7 - 39.4
18/03:00pm 24.3 - 24.6 - - NE 19 24 10 13 1009.7 1009.6 38.0
18/02:30pm 24.4 - 24.6 - - ENE 30 46 16 25 1009.7 - 30.6
18/02:23pm 24.6 - 24.8 - - NE 28 37 15 20 1010.2 - 28.8
18/02:00pm 25.9 - 26.1 - - NNE 9 17 5 9 1009.6 - 27.0
18/01:30pm 25.8 29.0 25.8 100 0.0 NNE 20 33 11 18 1009.9 - 18.4
18/01:18pm 26.3 27.7 26.0 98 0.2 NNE 30 50 16 27 1009.9 - 9.6
18/01:00pm 29.2 32.8 28.1 94 0.8 ENE 26 33 14 18 1009.8 - 5.0
18/12:30pm 27.3 - 27.5 - - ENE 26 35 14 19 1009.8 - 5.0
18/12:12pm 26.6 28.8 26.6 100 0.0 NNE 28 37 15 20 1010.1 - 5.0
18/12:00pm 25.6 23.4 23.5 88 1.4 ENE 41 52 22 28 1010.4 1010.3 4.4
18/11:49am 27.6 25.4 23.6 79 2.7 ENE 41 61 22 33 1010.4 - 0.2
18/11:48am 28.7 28.1 24.9 80 2.7 ENE 37 54 20 29 1010.4 - 0.2
18/11:30am 29.5 31.5 25.7 80 2.7 E 26 33 14 18 1010.8 - 0.0
18/11:00am 30.7 33.6 26.6 79 2.9 ENE 24 32 13 17 1011.1 - 0.0
18/10:30am 29.8 32.7 26.6 83 2.3 E 24 32 13 17 1011.4 - 0.0
18/10:00am 29.1 31.9 26.9 88 1.6 E 26 32 14 17 1011.4 - 0.0
18/09:30am 29.2 31.6 26.4 85 2.0 E 26 35 14 19 1011.1 - 0.0
18/09:00am 29.0 31.2 27.2 90 1.3 E 30 39 16 21 1010.7 1010.6 1.6
18/08:30am 28.7 30.8 27.1 91 1.2 E 30 37 16 20 1010.4 - 1.6
18/08:00am 28.0 30.2 27.7 98 0.2 E 32 37 17 20 1010.5 - 1.6
18/07:30am 27.4 29.7 27.4 100 0.0 E 30 35 16 19 1010.7 - 1.6
18/07:00am 26.4 - 26.6 - - SSE 30 39 16 21 1010.6 - 1.6
18/06:30am 27.2 28.5 27.2 100 0.0 E 35 43 19 23 1009.9 - 1.6
18/06:00am 27.5 29.5 27.5 100 0.0 E 32 43 17 23 1009.8 1009.7 1.6
18/05:30am 27.6 31.5 27.4 99 0.1 E 22 32 12 17 1009.3 - 1.6
18/05:00am 27.4 30.7 27.2 99 0.1 E 24 30 13 16 1009.5 - 1.6
18/04:30am 27.2 30.9 27.2 100 0.0 E 22 26 12 14 1009.0 - 1.6
18/04:00am 27.4 30.9 27.4 100 0.0 E 24 30 13 16 1009.1 - 1.6
18/03:30am 27.2 30.5 27.2 100 0.0 E 24 30 13 16 1009.2 - 1.6
18/03:00am 27.3 30.7 27.3 100 0.0 E 24 30 13 16 1009.2 1009.1 1.6
18/02:30am 27.1 - 27.3 - - E 22 30 12 16 1009.3 - 1.6
18/02:00am 27.1 - 27.3 - - ENE 19 26 10 14 1009.3 - 1.4
18/01:30am 26.8 29.4 26.1 96 0.5 ENE 24 33 13 18 1009.4 - 1.2
18/01:00am 27.7 31.5 25.9 90 1.3 E 17 20 9 11 1010.0 - 0.4
18/12:30am 27.7 31.4 25.7 89 1.4 E 17 20 9 11 1010.5 - 0.4
18/12:00am 27.5 31.2 25.1 87 1.7 E 15 17 8 9 1010.7 1010.6 0.4
 
Date/Time
CST
Temp
°C
App
Temp
°C
Dew
Point
Rel
Hum
%
Delta-T
°C
Wind Press
QNH
hPa
Press
MSL
hPa
Rain
since 9 am
mm
Dir
 
Spd
km/h
Gust
km/h
Spd
kts
Gust
kts
17/11:30pm 27.5 31.3 24.7 85 1.9 E 13 17 7 9 1010.7 - 0.4
17/11:00pm 27.7 30.5 24.3 82 2.4 E 17 20 9 11 1010.9 - 0.4
17/10:30pm 27.9 30.8 24.5 82 2.4 E 17 20 9 11 1011.2 - 0.4
17/10:00pm 27.7 30.7 24.7 84 2.1 E 17 22 9 12 1011.4 - 0.4
17/09:30pm 27.4 31.4 25.6 90 1.3 ENE 15 20 8 11 1011.1 - 0.4
17/09:00pm 27.5 32.1 26.6 95 0.6 ENE 15 19 8 10 1011.1 1011.0 0.4
17/08:30pm 27.5 31.0 26.3 93 0.9 ENE 20 24 11 13 1010.6 - 0.4
17/08:00pm 27.5 30.8 26.6 95 0.6 NE 22 26 12 14 1010.3 - 0.4
17/07:30pm 27.7 31.2 26.8 95 0.6 ENE 22 30 12 16 1009.7 - 0.4
17/07:00pm 27.6 31.4 26.5 94 0.8 ENE 19 24 10 13 1009.4 - 0.4
17/06:30pm 27.3 30.9 26.2 94 0.8 E 19 24 10 13 1009.1 - 0.4
17/06:00pm 27.2 31.0 26.5 96 0.5 E 19 22 10 12 1008.5 1008.4 0.4
17/05:30pm 27.3 31.5 27.0 98 0.2 E 19 22 10 12 1008.6 - 0.4
17/05:00pm 27.4 29.9 25.4 89 1.4 ENE 22 33 12 18 1008.4 - 0.2
17/04:30pm 28.3 30.5 24.9 82 2.4 E 22 30 12 16 1008.0 - 0.2
17/04:00pm 29.4 32.5 25.4 79 2.8 E 19 22 10 12 1007.7 - 0.0
17/03:30pm 30.3 33.2 25.4 75 3.5 E 20 24 11 13 1007.7 - 0.0
17/03:00pm 30.8 33.8 26.1 76 3.4 E 22 28 12 15 1007.8 1007.7 0.0
17/02:30pm 30.3 33.8 26.9 82 2.4 E 22 30 12 16 1008.0 - 0.0
17/02:00pm 30.1 33.8 27.7 87 1.7 E 24 30 13 16 1008.2 - 0.0
17/01:30pm 28.4 32.6 27.0 92 1.0 E 19 28 10 15 1008.6 - 0.0
17/01:00pm 27.8 30.3 26.0 90 1.3 ENE 24 32 13 17 1009.3 - 0.0
17/12:32pm 31.1 32.7 25.7 73 3.8 E 28 46 15 25 1009.6 - 0.0
17/12:30pm 31.1 32.9 25.4 71 4.0 E 26 32 14 17 1009.5 - 0.0
17/12:00pm 32.2 35.0 27.0 74 3.8 E 26 32 14 17 1010.0 1009.9 0.0
17/11:30am 32.0 34.5 27.0 75 3.6 E 28 33 15 18 1010.6 - 0.0
17/11:00am 30.8 33.4 27.2 81 2.6 E 28 35 15 19 1011.1 - 0.0
17/10:30am 29.5 31.1 26.3 83 2.3 E 30 33 16 18 1011.3 - 0.0
17/10:00am 29.2 30.6 26.0 83 2.3 E 30 35 16 19 1011.2 - 0.0
17/09:30am 29.2 31.0 26.6 86 1.9 ESE 30 35 16 19 1011.1 - 0.0
17/09:00am 29.0 30.5 26.2 85 2.0 ESE 30 39 16 21 1010.9 1010.8 0.0
17/08:30am 28.9 29.4 25.5 82 2.4 ESE 33 43 18 23 1010.9 - 0.0
17/08:00am 28.9 30.2 25.9 84 2.1 SE 30 37 16 20 1010.5 - 0.0
17/07:30am 28.7 28.9 25.1 81 2.5 ESE 33 43 18 23 1010.4 - 0.0
17/07:00am 28.5 29.2 25.5 84 2.1 SE 32 41 17 22 1010.0 - 0.0
17/06:30am 28.4 29.7 25.2 83 2.2 SE 28 33 15 18 1009.7 - 0.0
17/06:00am 28.2 28.8 24.2 79 2.8 SE 28 33 15 18 1009.3 1009.2 0.0
17/05:30am 28.3 28.5 24.1 78 2.9 SE 30 37 16 20 1009.0 - 0.0
17/05:00am 28.1 29.4 24.1 79 2.8 SE 24 30 13 16 1008.7 - 0.0
17/04:30am 28.0 29.7 24.0 79 2.8 SE 22 28 12 15 1008.6 - 0.0
17/04:00am 28.0 29.7 24.6 82 2.4 SE 24 30 13 16 1008.6 - 0.0
17/03:30am 28.2 29.4 23.8 77 3.0 SE 24 32 13 17 1008.6 - 0.0
17/03:00am 28.4 28.6 23.5 75 3.4 SE 28 32 15 17 1008.9 1008.8 0.0
17/02:30am 28.1 29.2 23.7 77 3.0 SE 24 30 13 16 1009.1 - 0.0
17/02:00am 28.4 30.1 24.6 80 2.6 SE 24 28 13 15 1009.2 - 0.0
17/01:30am 28.3 30.1 24.3 79 2.8 SE 22 28 12 15 1009.3 - 0.0
17/01:00am 28.3 30.4 24.1 78 2.9 SE 20 28 11 15 1009.7 - 0.0
17/12:30am 28.3 30.2 23.7 76 3.2 SE 20 26 11 14 1010.0 - 0.0
17/12:00am 28.5 30.5 23.9 76 3.2 SE 20 24 11 13 1010.2 1010.1 0.0
 
Date/Time
CST
Temp
°C
App
Temp
°C
Dew
Point
Rel
Hum
%
Delta-T
°C
Wind Press
QNH
hPa
Press
MSL
hPa
Rain
since 9 am
mm
Dir
 
Spd
km/h
Gust
km/h
Spd
kts
Gust
kts
16/11:30pm 28.5 30.3 23.6 75 3.4 SE 20 24 11 13 1010.5 - 0.0
16/11:00pm 28.5 30.3 23.2 73 3.6 SE 19 24 10 13 1010.7 - 0.0
16/10:30pm 28.7 30.5 23.6 74 3.5 SE 20 24 11 13 1010.9 - 0.0
16/10:00pm 28.8 30.2 23.5 73 3.6 SE 22 26 12 14 1010.7 - 0.0
16/09:30pm 28.6 30.2 23.3 73 3.6 SE 20 26 11 14 1010.6 - 0.0
16/09:00pm 28.5 30.3 23.6 75 3.4 SE 20 24 11 13 1010.6 1010.5 0.0
16/08:30pm 28.5 30.1 23.9 76 3.2 SE 22 26 12 14 1010.1 - 0.0
16/08:00pm 28.3 30.0 23.4 75 3.4 SE 20 26 11 14 1009.8 - 0.0
16/07:30pm 28.2 30.2 23.6 76 3.2 SE 19 22 10 12 1009.6 - 0.0
16/07:00pm 28.0 30.1 23.1 74 3.3 SE 17 20 9 11 1009.1 - 0.0
16/06:30pm 28.0 30.3 22.7 73 3.6 SE 15 19 8 10 1008.7 - 0.0
16/06:00pm 28.6 31.0 22.3 68 4.3 SE 13 17 7 9 1008.4 1008.3 0.0
16/05:30pm 29.5 32.1 22.7 67 4.6 SE 13 17 7 9 1008.1 - 0.0
16/05:00pm 30.6 34.1 23.5 66 4.9 ESE 11 17 6 9 1008.0 - 0.0
16/04:30pm 30.6 33.4 23.0 64 5.2 E 13 17 7 9 1007.9 - 0.0
16/04:00pm 31.2 33.8 23.3 63 5.4 ESE 15 19 8 10 1007.8 - 0.0
16/03:30pm 31.6 34.8 23.7 63 5.5 ESE 13 19 7 10 1007.9 - 0.0
16/03:00pm 31.6 34.5 23.2 61 5.8 ESE 13 17 7 9 1008.1 1008.0 0.0
16/02:30pm 32.0 34.3 23.5 60 5.9 E 17 20 9 11 1008.4 - 0.0
16/02:00pm 32.3 34.8 23.8 61 5.9 E 17 20 9 11 1008.8 - 0.0

Other Formats:

Comma delimited format used in spreadsheet applications
http://www.bom.gov.au/fwo/IDD60801/IDD60801.94147.axf

JavaScript Object Notation format (JSON) in row-major order
http://www.bom.gov.au/fwo/IDD60801/IDD60801.94147.json